This is the latest recevied weather packets stored in our database for station/object KB4NWJ. If no packets are shown the sender has not sent any weather packets the latest 1 day(s).
| Time | Temp. | Humidity | Pressure | Rain* | Wind** | Luminosity | Snow |
|---|---|---|---|---|---|---|---|
| 1778016528 | 25° C | 44% | 1014.5 hPa | 0 mm | 1.34 m/s, 135° | 372 W/m² | - |
| 1778016226 | 25° C | 45% | 1014.2 hPa | 0 mm | 0.45 m/s, 221° | 259 W/m² | - |
| 1778015922 | 25° C | 43% | 1014.5 hPa | 0 mm | 1.34 m/s, 252° | 428 W/m² | - |
| 1778015620 | 25° C | 43% | 1014.5 hPa | 0 mm | 0.45 m/s, 249° | 423 W/m² | - |
| 1778015316 | 25° C | 41% | 1014.5 hPa | 0 mm | 1.34 m/s, 227° | 419 W/m² | - |
| 1778015013 | 25° C | 43% | 1014.5 hPa | 0 mm | 1.34 m/s, 217° | 451 W/m² | - |
| 1778014709 | 25.56° C | 41% | 1014.4 hPa | 0 mm | 1.34 m/s, 222° | 480 W/m² | - |
| 1778014408 | 26.11° C | 41% | 1014.7 hPa | 0 mm | 2.24 m/s, 190° | 439 W/m² | - |
| 1778014104 | 25.56° C | 40% | 1014.5 hPa | 0 mm | 1.34 m/s, 300° | 455 W/m² | - |
| 1778013802 | 25.56° C | 41% | 1014.6 hPa | 0 mm | 0.89 m/s, 90° | 505 W/m² | - |
| 1778013500 | 25.56° C | 40% | 1014.7 hPa | 0 mm | 0.45 m/s, 256° | 482 W/m² | - |
| 1778013196 | 25.56° C | 41% | 1014.6 hPa | 0 mm | 0.45 m/s, 262° | 526 W/m² | - |
| 1778012892 | 25.56° C | 40% | 1014.9 hPa | 0 mm | 0.89 m/s, 247° | 531 W/m² | - |
| 1778012588 | 25.56° C | 43% | 1014.9 hPa | 0 mm | 0.45 m/s, 278° | 552 W/m² | - |
| 1778012285 | 26.11° C | 40% | 1015 hPa | 0 mm | 2.24 m/s, 189° | 546 W/m² | - |
| 1778011983 | 26.11° C | 41% | 1015.4 hPa | 0 mm | 2.24 m/s, 305° | 529 W/m² | - |
| 1778011681 | 26.11° C | 42% | 1015.1 hPa | 0 mm | 0.89 m/s, 308° | 549 W/m² | - |
| 1778011378 | 25.56° C | 43% | 1015.3 hPa | 0 mm | 0.89 m/s, 308° | 578 W/m² | - |
| 1778011073 | 25° C | 41% | 1015.4 hPa | 0 mm | 0.45 m/s, 245° | 521 W/m² | - |
| 1778010771 | 25° C | 44% | 1015 hPa | 0 mm | 0 m/s | 570 W/m² | - |
| 1778010468 | 25.56° C | 41% | 1015.4 hPa | 0 mm | 1.79 m/s, 40° | 618 W/m² | - |
| 1778010164 | 25° C | 44% | 1015.5 hPa | 0 mm | 1.34 m/s, 140° | 632 W/m² | - |
| 1778009860 | 25.56° C | 42% | 1015.5 hPa | 0 mm | 1.79 m/s, 247° | 626 W/m² | - |
| 1778009558 | 25.56° C | 43% | 1015.4 hPa | 0 mm | 1.34 m/s, 219° | 597 W/m² | - |
| 1778009256 | 25.56° C | 42% | 1015.5 hPa | 0 mm | 1.34 m/s, 181° | 614 W/m² | - |
* Rain latest hour (hover to see other rain measurements)
** Current wind speed in m/s (hover to see current wind gust speed)